Zumbro Falls, Minnesota
Current Conditions -  °F | °C
As of 3:34 PM on Monday 24 Nov 2014 (Local Time) from K9MN Reporting Station
Overcast Overcast  
Wind Chill:   Ceiling: 1500
Heat Index: 20°   Visibility: 10mi
Dew Point: 15°   Wind: 20mph
Humidity: 80%   Direction: 290°WNW
Pressure: 29.55"   Gusts: 33mph
Location:  44.28°N, 92.42°W
Report Text: K9MN 242134Z AUTO 29017G29KT 260V330 10SM OVC015 M07/M10 A2955 RMK AO1 T10671097
Loading
Personal Weather Stations






























Interactive Weather Map New forecast layout! Learn more

10-Day Weather Forecast

Advertisements
Track Severe Weather on mobile